Карточка аэропорта UMMS

Внимание!
Информация на этой странице в стадии наполнения.
Если вы не увидели какой-то информации, или заметили неточность - пожалуйста сообщите нам!
Спасибо!
Команда XR-STAFF
Название аэропортаMinsk 2
Название аэропорта (англ.)Minsk 2
Превышение681 ft. (207.6 m.)
Координаты53°52.95', 28°1.848'
Высота перехода6000 ft
Эшелон переходаQNH>=733mm:FL80; QNH<733mm:FL90
Коды ответчика0020−0027; 6230-6277
Зона ОрВДМинск РПИ (UMMV)
Данные METARUMMS 160800Z 32008G11MPS 290V350 9999 SCT044 11/00 Q1016 TEMPO 32010G15MPS
Проноз погоды (TAF)UMMS 160515Z 1605/1706 30007G12MPS 9999 SCT020 TEMPO 1605/1618 33011G16MPS -SHRA BKN015CB PROB40 TEMPO 1612/1618 -TSRA BKN020CB BECMG 1618/1620 30006MPS
NOTAMshow/hide NOTAM
AWOS   TABLE

Информация о ВПП

ВПП Длина ВПП (м.) Покрытие Курс ВПП Частота ILS
13L3700Цементобетон130110.7
13R3641Цементобетон130108.9
31L3641Цементобетон310109.7
31R3700Цементобетон310110.1

Диспетчерские позиции

Позывной Наименование органа УВД Частота
UMMS_APPMinsk Approach125.900
UMMS_R_APPMinsk Radar125.250
UMMS_TWRMinsk Tower130.400
UMMS_GNDMinsk Ground129.950



Спутниковое изображение